M/V C0sta Favolosa — ICPK — position and weather

sailwx.info

Track history (hours):
 
Tides and Currents Weather Stations Pressure Air Temp Water Temp Dewpoint Dewpoint Depression Visibility Wind Speed Wind Dir Waves Ship Positions

M/V C0sta Favolosa

Last reported at 2017-Mar-26 19:17 UTC. Time now 2017-Mar-27 06:52 UTC.
Position N 17°16' W 062°47'.

Length 289 m; draft 8.3 m.

Type: Ship. MMSI: 247311100.

Date/timePositionNaut miles runAvg speedWind from/ knotsBaromVisibWave heightAir tempDewpointWater temp
2017-Mar-26 19:17N 17°16' W 062°47'43 3.9
2017-Mar-26 08:31N 16°37' W 062°28'1718.2
2017-Mar-26 07:33N 16°24' W 062°16'3818.1
2017-Mar-26 05:28N 15°57' W 061°49'1916.0
2017-Mar-26 04:17N 16°01' W 061°30'811.2
2017-Mar-26 03:32N 16°09' W 061°32'5 4.8
2017-Mar-26 02:33N 16°14' W 061°32'0 0.0
2017-Mar-26 01:31N 16°14' W 061°32'0 0.0
2017-Mar-26 00:29N 16°14' W 061°32'0 0.0
2017-Mar-25 23:33N 16°14' W 061°32'0 0.0
2017-Mar-25 22:33N 16°14' W 061°32'0 0.0
2017-Mar-25 21:29N 16°14' W 061°32'0 0.0
2017-Mar-25 20:32N 16°14' W 061°32'0 0.0
2017-Mar-25 19:32N 16°14' W 061°32'0 0.0
2017-Mar-25 18:32N 16°14' W 061°32'0 0.0
2017-Mar-25 16:33N 16°14' W 061°32'0 0.0
2017-Mar-25 15:32N 16°14' W 061°32'0 0.0
2017-Mar-25 14:29N 16°14' W 061°32'0 0.0
2017-Mar-25 13:32N 16°14' W 061°32'0 0.0
2017-Mar-25 12:32N 16°14' W 061°32'0 0.0
2017-Mar-25 11:33N 16°14' W 061°32'5 4.8
2017-Mar-25 10:33N 16°09' W 061°32'1210.8
2017-Mar-25 09:27N 15°58' W 061°29'1011.3
2017-Mar-25 08:32N 15°48' W 061°33'1211.5
2017-Mar-25 07:28N 15°39' W 061°41'41 1.8
2017-Mar-24 08:22N 14°59' W 061°33'1111.9
2017-Mar-24 07:29N 15°09' W 061°37'1111.8
2017-Mar-24 06:33N 15°19' W 061°42'1411.9
2017-Mar-24 05:25N 15°31' W 061°47'3214.4
2017-Mar-24 03:13N 16°00' W 062°00'1217.5
2017-Mar-24 02:33N 16°12' W 062°02'1717.4
2017-Mar-24 01:33N 16°29' W 062°03'1717.0
2017-Mar-24 00:33N 16°46' W 062°03'1716.7
2017-Mar-23 23:33N 17°03' W 062°03'1110.8
2017-Mar-23 22:33N 17°08' W 061°53'2 2.3
2017-Mar-23 21:32N 17°07' W 061°51'0 0.0
2017-Mar-23 20:32N 17°07' W 061°51'0 0.0
2017-Mar-23 19:32N 17°07' W 061°51'0 0.0
2017-Mar-23 18:32N 17°07' W 061°51'0 0.0
2017-Mar-23 17:32N 17°07' W 061°51'0 0.0
2017-Mar-23 16:32N 17°07' W 061°51'0 0.0
2017-Mar-23 15:32N 17°07' W 061°51'0 0.0
2017-Mar-23 14:32N 17°07' W 061°51'0 0.0
2017-Mar-23 13:32N 17°07' W 061°51'0 0.0
2017-Mar-23 12:32N 17°07' W 061°51'0 0.0
2017-Mar-23 11:32N 17°07' W 061°51'0 0.1
2017-Mar-23 10:33N 17°07' W 061°51'8 8.2
2017-Mar-23 09:33N 17°10' W 061°59'9 8.6
2017-Mar-23 08:33N 17°09' W 062°08'1212.1
2017-Mar-23 07:33N 16°59' W 062°14'1211.9
2017-Mar-23 06:33N 16°50' W 062°22'1111.1
2017-Mar-23 05:33N 16°43' W 062°31'  
2017-Mar-19 11:30N 16°43' W 062°36'2122.5
2017-Mar-19 10:33N 16°27' W 062°21'4622.0
2017-Mar-19 08:29N 15°54' W 061°48'1919.8
2017-Mar-19 07:32N 16°02' W 061°30'1110.8
2017-Mar-19 06:33N 16°13' W 061°32'2 1.6
2017-Mar-19 05:29N 16°14' W 061°32'0 0.0
2017-Mar-19 04:32N 16°14' W 061°32'0 0.0
2017-Mar-19 03:23N 16°14' W 061°32'0 0.0
2017-Mar-19 02:26N 16°14' W 061°32'0 0.0
2017-Mar-19 01:29N 16°14' W 061°32'0 0.0
2017-Mar-19 00:26N 16°14' W 061°32'0 0.0
2017-Mar-18 23:32N 16°14' W 061°32'0 0.0
2017-Mar-18 22:32N 16°14' W 061°32'0 0.0
2017-Mar-18 21:32N 16°14' W 061°32'0 0.0
2017-Mar-18 20:32N 16°14' W 061°32'0 0.0
2017-Mar-18 19:32N 16°14' W 061°32'0 0.0
2017-Mar-18 18:32N 16°14' W 061°32'0 0.0
2017-Mar-18 17:32N 16°14' W 061°32'0 0.0
2017-Mar-18 16:32N 16°14' W 061°32'0 0.0
2017-Mar-18 15:34N 16°14' W 061°32'0 0.0
2017-Mar-18 14:33N 16°14' W 061°32'0 0.0
2017-Mar-18 13:34N 16°14' W 061°32'0 0.0
2017-Mar-18 12:33N 16°14' W 061°32'0 0.0
2017-Mar-18 11:33N 16°14' W 061°32'5 4.8
2017-Mar-18 10:33N 16°09' W 061°32'1412.9
2017-Mar-18 09:28N 15°56' W 061°29'2211.7
2017-Mar-18 07:33N 15°37' W 061°42'1411.5
2017-Mar-18 06:21N 15°23' W 061°43'1211.8
2017-Mar-18 05:19N 15°12' W 061°38'14 0.7
2017-Mar-17 08:15N 14°59' W 061°33'1012.5
2017-Mar-17 07:27N 15°08' W 061°37'5212.5
2017-Mar-17 03:19N 15°56' W 061°58'1113.0
2017-Mar-17 02:29N 16°06' W 062°01'1617.7
2017-Mar-17 01:33N 16°23' W 062°02'1817.6
2017-Mar-17 00:33N 16°40' W 062°04'1817.6
2017-Mar-16 23:33N 16°58' W 062°04'1313.5
2017-Mar-16 22:33N 17°09' W 061°56'5 4.6
2017-Mar-16 21:29N 17°07' W 061°51'0 0.0
2017-Mar-16 20:29N 17°07' W 061°51'0 0.0
2017-Mar-16 19:32N 17°07' W 061°51'  
Track history (hours):
 
Tides and Currents Weather Stations Pressure Air Temp Water Temp Dewpoint Dewpoint Depression Visibility Wind Speed Wind Dir Waves Ship Positions

M/V C0sta Favolosa

Last reported at 2017-Mar-26 19:17 UTC. Time now 2017-Mar-27 06:52 UTC.
Position N 17°16' W 062°47'.

Length 289 m; draft 8.3 m.

Type: Ship. MMSI: 247311100.

Date/timePositionNaut miles runAvg speedWind from/ knotsBaromVisibWave heightAir tempDewpointWater temp
2017-Mar-26 19:17N 17°16' W 062°47'43 3.9
2017-Mar-26 08:31N 16°37' W 062°28'1718.2
2017-Mar-26 07:33N 16°24' W 062°16'3818.1
2017-Mar-26 05:28N 15°57' W 061°49'1916.0
2017-Mar-26 04:17N 16°01' W 061°30'811.2
2017-Mar-26 03:32N 16°09' W 061°32'5 4.8
2017-Mar-26 02:33N 16°14' W 061°32'0 0.0
2017-Mar-26 01:31N 16°14' W 061°32'0 0.0
2017-Mar-26 00:29N 16°14' W 061°32'0 0.0
2017-Mar-25 23:33N 16°14' W 061°32'0 0.0
2017-Mar-25 22:33N 16°14' W 061°32'0 0.0
2017-Mar-25 21:29N 16°14' W 061°32'0 0.0
2017-Mar-25 20:32N 16°14' W 061°32'0 0.0
2017-Mar-25 19:32N 16°14' W 061°32'0 0.0
2017-Mar-25 18:32N 16°14' W 061°32'0 0.0
2017-Mar-25 16:33N 16°14' W 061°32'0 0.0
2017-Mar-25 15:32N 16°14' W 061°32'0 0.0
2017-Mar-25 14:29N 16°14' W 061°32'0 0.0
2017-Mar-25 13:32N 16°14' W 061°32'0 0.0
2017-Mar-25 12:32N 16°14' W 061°32'0 0.0
2017-Mar-25 11:33N 16°14' W 061°32'5 4.8
2017-Mar-25 10:33N 16°09' W 061°32'1210.8
2017-Mar-25 09:27N 15°58' W 061°29'1011.3
2017-Mar-25 08:32N 15°48' W 061°33'1211.5
2017-Mar-25 07:28N 15°39' W 061°41'41 1.8
2017-Mar-24 08:22N 14°59' W 061°33'1111.9
2017-Mar-24 07:29N 15°09' W 061°37'1111.8
2017-Mar-24 06:33N 15°19' W 061°42'1411.9
2017-Mar-24 05:25N 15°31' W 061°47'3214.4
2017-Mar-24 03:13N 16°00' W 062°00'1217.5
2017-Mar-24 02:33N 16°12' W 062°02'1717.4
2017-Mar-24 01:33N 16°29' W 062°03'1717.0
2017-Mar-24 00:33N 16°46' W 062°03'1716.7
2017-Mar-23 23:33N 17°03' W 062°03'1110.8
2017-Mar-23 22:33N 17°08' W 061°53'2 2.3
2017-Mar-23 21:32N 17°07' W 061°51'0 0.0
2017-Mar-23 20:32N 17°07' W 061°51'0 0.0
2017-Mar-23 19:32N 17°07' W 061°51'0 0.0
2017-Mar-23 18:32N 17°07' W 061°51'0 0.0
2017-Mar-23 17:32N 17°07' W 061°51'0 0.0
2017-Mar-23 16:32N 17°07' W 061°51'0 0.0
2017-Mar-23 15:32N 17°07' W 061°51'0 0.0
2017-Mar-23 14:32N 17°07' W 061°51'0 0.0
2017-Mar-23 13:32N 17°07' W 061°51'0 0.0
2017-Mar-23 12:32N 17°07' W 061°51'0 0.0
2017-Mar-23 11:32N 17°07' W 061°51'0 0.1
2017-Mar-23 10:33N 17°07' W 061°51'8 8.2
2017-Mar-23 09:33N 17°10' W 061°59'9 8.6
2017-Mar-23 08:33N 17°09' W 062°08'1212.1
2017-Mar-23 07:33N 16°59' W 062°14'1211.9
2017-Mar-23 06:33N 16°50' W 062°22'1111.1
2017-Mar-23 05:33N 16°43' W 062°31'  
2017-Mar-19 11:30N 16°43' W 062°36'2122.5
2017-Mar-19 10:33N 16°27' W 062°21'4622.0
2017-Mar-19 08:29N 15°54' W 061°48'1919.8
2017-Mar-19 07:32N 16°02' W 061°30'1110.8
2017-Mar-19 06:33N 16°13' W 061°32'2 1.6
2017-Mar-19 05:29N 16°14' W 061°32'0 0.0
2017-Mar-19 04:32N 16°14' W 061°32'0 0.0
2017-Mar-19 03:23N 16°14' W 061°32'0 0.0
2017-Mar-19 02:26N 16°14' W 061°32'0 0.0
2017-Mar-19 01:29N 16°14' W 061°32'0 0.0
2017-Mar-19 00:26N 16°14' W 061°32'0 0.0
2017-Mar-18 23:32N 16°14' W 061°32'0 0.0
2017-Mar-18 22:32N 16°14' W 061°32'0 0.0
2017-Mar-18 21:32N 16°14' W 061°32'0 0.0
2017-Mar-18 20:32N 16°14' W 061°32'0 0.0
2017-Mar-18 19:32N 16°14' W 061°32'0 0.0
2017-Mar-18 18:32N 16°14' W 061°32'0 0.0
2017-Mar-18 17:32N 16°14' W 061°32'0 0.0
2017-Mar-18 16:32N 16°14' W 061°32'0 0.0
2017-Mar-18 15:34N 16°14' W 061°32'0 0.0
2017-Mar-18 14:33N 16°14' W 061°32'0 0.0
2017-Mar-18 13:34N 16°14' W 061°32'0 0.0
2017-Mar-18 12:33N 16°14' W 061°32'0 0.0
2017-Mar-18 11:33N 16°14' W 061°32'5 4.8
2017-Mar-18 10:33N 16°09' W 061°32'1412.9
2017-Mar-18 09:28N 15°56' W 061°29'2211.7
2017-Mar-18 07:33N 15°37' W 061°42'1411.5
2017-Mar-18 06:21N 15°23' W 061°43'1211.8
2017-Mar-18 05:19N 15°12' W 061°38'14 0.7
2017-Mar-17 08:15N 14°59' W 061°33'1012.5
2017-Mar-17 07:27N 15°08' W 061°37'5212.5
2017-Mar-17 03:19N 15°56' W 061°58'1113.0
2017-Mar-17 02:29N 16°06' W 062°01'1617.7
2017-Mar-17 01:33N 16°23' W 062°02'1817.6
2017-Mar-17 00:33N 16°40' W 062°04'1817.6
2017-Mar-16 23:33N 16°58' W 062°04'1313.5
2017-Mar-16 22:33N 17°09' W 061°56'5 4.6
2017-Mar-16 21:29N 17°07' W 061°51'0 0.0
2017-Mar-16 20:29N 17°07' W 061°51'0 0.0
2017-Mar-16 19:32N 17°07' W 061°51'  

Dump ship's entire track history